Terminal Aerodrome Forecast
Issued by NWS

Home | Current Version | Previous Version | Text Only | Print | Product List | Glossary On
Versions: 1 2 3 4 5 6 7 8 9 10 11 12 13 14
000
FTUS43 KMQT 281700
TAFCMX
TAF
KCMX 281736Z 2818/2918 14007KT P6SM SCT200
     FM282300 11005KT P6SM BKN150
     FM291000 15006KT P6SM VCSH BKN080
     FM291200 14007KT P6SM -RA OVC030
     FM291500 13007KT 5SM -RA BR OVC006=

USA.gov is the U.S. government's official web portal to all federal, state and local government web resources and services.